createdAt,value
2022-11-23T00:01:16.709Z,4.93
2022-11-23T00:03:44.435Z,4.40
2022-11-23T00:06:11.650Z,4.77
2022-11-23T00:08:38.742Z,14.40
2022-11-23T00:11:06.061Z,4.43
2022-11-23T00:13:35.165Z,6.35
2022-11-23T00:16:11.010Z,4.97
2022-11-23T00:18:38.109Z,5.53
2022-11-23T00:21:08.901Z,7.38
2022-11-23T00:23:36.469Z,4.05
2022-11-23T00:26:03.961Z,3.97
2022-11-23T00:28:31.018Z,5.32
2022-11-23T00:30:58.449Z,5.70
2022-11-23T00:33:25.494Z,5.80
2022-11-23T00:36:00.664Z,4.97
2022-11-23T00:38:28.110Z,3.92
2022-11-23T00:40:59.392Z,6.03
2022-11-23T00:43:26.494Z,6.88
2022-11-23T00:46:13.485Z,5.53
2022-11-23T00:48:40.706Z,6.05
2022-11-23T00:51:09.336Z,6.78
2022-11-23T00:53:36.990Z,6.43
2022-11-23T00:56:04.674Z,5.70
2022-11-23T00:58:31.790Z,5.60
2022-11-23T01:01:03.306Z,5.43
2022-11-23T01:03:30.907Z,5.45
2022-11-23T01:06:17.950Z,6.38
2022-11-23T01:08:49.404Z,4.65
2022-11-23T01:11:16.881Z,4.78
2022-11-23T01:13:43.922Z,5.72
2022-11-23T01:16:16.330Z,4.20
2022-11-23T01:18:46.676Z,4.70
2022-11-23T01:21:13.749Z,8.00
2022-11-23T01:23:40.829Z,6.57
2022-11-23T01:26:08.860Z,4.28
2022-11-23T01:28:36.588Z,5.38
2022-11-23T01:31:06.080Z,4.68
2022-11-23T01:33:33.214Z,4.70
2022-11-23T01:36:00.306Z,5.82
2022-11-23T01:38:27.398Z,4.57
2022-11-23T01:40:54.430Z,4.85
2022-11-23T01:43:21.543Z,3.83
2022-11-23T01:46:04.380Z,5.97
2022-11-23T01:48:34.810Z,5.45
2022-11-23T01:51:03.414Z,4.88
2022-11-23T01:53:30.630Z,6.57
2022-11-23T01:55:59.402Z,5.72
2022-11-23T01:58:28.457Z,4.47
2022-11-23T02:00:55.772Z,4.95
2022-11-23T02:03:23.113Z,5.63
2022-11-23T02:05:53.944Z,4.10
2022-11-23T02:08:21.139Z,5.40
2022-11-23T02:10:48.566Z,4.82
2022-11-23T02:13:16.038Z,4.55
2022-11-23T02:15:43.098Z,4.38
2022-11-23T02:18:13.283Z,4.97
2022-11-23T02:20:40.510Z,4.00
2022-11-23T02:23:27.567Z,4.50
2022-11-23T02:26:14.522Z,5.88
2022-11-23T02:28:44.281Z,6.75
2022-11-23T02:31:11.339Z,7.07
2022-11-23T02:33:39.200Z,6.17
2022-11-23T02:36:26.134Z,5.32
2022-11-23T02:38:54.543Z,5.38
2022-11-23T02:41:21.594Z,6.38
2022-11-23T02:43:49.699Z,3.75
2022-11-23T02:46:16.771Z,9.25
2022-11-23T02:48:43.854Z,5.07
2022-11-23T02:51:11.016Z,4.85
2022-11-23T02:53:38.044Z,6.13
2022-11-23T02:56:05.154Z,4.90
2022-11-23T02:58:31.837Z,5.38
2022-11-23T03:00:58.946Z,6.45
2022-11-23T03:03:26.053Z,3.80
2022-11-23T03:05:53.120Z,4.13
2022-11-23T03:08:20.200Z,4.40
2022-11-23T03:10:47.268Z,4.77
2022-11-23T03:13:14.292Z,4.43
2022-11-23T03:15:41.489Z,5.72
2022-11-23T03:18:08.533Z,5.30
2022-11-23T03:20:35.649Z,5.28
2022-11-23T03:23:02.762Z,3.72
2022-11-23T03:25:29.853Z,4.35
2022-11-23T03:27:56.888Z,4.05
2022-11-23T03:30:23.985Z,3.72
2022-11-23T03:32:51.061Z,3.67
2022-11-23T03:35:18.189Z,4.80
2022-11-23T03:37:45.208Z,3.92
2022-11-23T03:40:12.452Z,3.58
2022-11-23T03:42:40.573Z,4.65
2022-11-23T03:45:08.488Z,6.38
2022-11-23T03:47:35.604Z,7.28
2022-11-23T03:50:02.688Z,6.80
2022-11-23T03:52:29.762Z,5.13
2022-11-23T03:54:56.790Z,5.88
2022-11-23T03:57:23.381Z,4.30
2022-11-23T03:59:50.350Z,4.47
2022-11-23T04:02:17.435Z,4.45
2022-11-23T04:04:44.449Z,4.03
2022-11-23T04:07:11.571Z,4.60
2022-11-23T04:09:38.761Z,5.28
2022-11-23T04:12:05.992Z,4.07
2022-11-23T04:14:33.114Z,4.90
2022-11-23T04:17:00.279Z,3.80
2022-11-23T04:19:27.350Z,5.30
2022-11-23T04:21:54.758Z,4.53
2022-11-23T04:24:21.800Z,4.90
2022-11-23T04:26:48.877Z,3.90
2022-11-23T04:29:16.026Z,5.43
2022-11-23T04:31:43.116Z,4.35
2022-11-23T04:34:10.301Z,7.13
2022-11-23T04:36:37.401Z,6.20
2022-11-23T04:39:04.485Z,4.22
2022-11-23T04:41:31.521Z,5.03
2022-11-23T04:43:58.648Z,4.18
2022-11-23T04:46:25.904Z,3.90
2022-11-23T04:48:52.535Z,4.07
2022-11-23T04:51:19.600Z,5.55
2022-11-23T04:53:46.551Z,6.40
2022-11-23T04:56:13.875Z,5.95
2022-11-23T04:58:40.989Z,4.03
2022-11-23T05:01:08.152Z,6.17
2022-11-23T05:03:35.257Z,4.63
2022-11-23T05:06:03.106Z,4.67
2022-11-23T05:08:30.444Z,4.40
2022-11-23T05:10:57.597Z,5.13
2022-11-23T05:13:24.628Z,4.63
2022-11-23T05:15:51.656Z,4.85
2022-11-23T05:18:18.751Z,4.75
2022-11-23T05:20:46.225Z,6.63
2022-11-23T05:23:13.615Z,5.90
2022-11-23T05:25:40.689Z,4.32
2022-11-23T05:28:30.514Z,7.20
2022-11-23T05:30:54.886Z,5.67
2022-11-23T05:33:21.948Z,8.23
2022-11-23T05:35:49.028Z,6.05
2022-11-23T05:38:16.144Z,6.82
2022-11-23T05:40:43.188Z,6.60
2022-11-23T05:43:10.238Z,5.78
2022-11-23T05:45:37.335Z,9.52
2022-11-23T05:48:04.625Z,7.65
2022-11-23T05:50:31.974Z,7.55
2022-11-23T05:52:59.658Z,7.85
2022-11-23T05:55:26.919Z,10.57
2022-11-23T05:57:54.297Z,5.47
2022-11-23T06:00:21.791Z,5.32
2022-11-23T06:02:48.972Z,4.57
2022-11-23T06:05:16.027Z,6.10
2022-11-23T06:07:43.175Z,5.57
2022-11-23T06:10:11.068Z,7.67
2022-11-23T06:12:38.095Z,6.15
2022-11-23T06:15:05.363Z,5.32
2022-11-23T06:17:32.531Z,7.18
2022-11-23T06:19:59.579Z,8.55
2022-11-23T06:22:26.651Z,10.00
2022-11-23T06:24:53.708Z,11.77
2022-11-23T06:27:20.924Z,10.00
2022-11-23T06:29:47.550Z,12.00
2022-11-23T06:32:15.547Z,9.63
2022-11-23T06:34:42.979Z,9.82
2022-11-23T06:37:10.101Z,7.00
2022-11-23T06:39:37.209Z,6.25
2022-11-23T06:42:23.738Z,5.93
2022-11-23T06:44:51.358Z,6.40
2022-11-23T06:47:21.921Z,7.73
2022-11-23T06:49:52.675Z,9.83
2022-11-23T06:52:19.672Z,7.83
2022-11-23T06:54:47.003Z,8.73
2022-11-23T06:57:14.117Z,9.30
2022-11-23T06:59:44.701Z,7.20
2022-11-23T07:02:12.548Z,8.60
2022-11-23T07:04:39.703Z,7.47
2022-11-23T07:07:08.365Z,7.30
2022-11-23T07:09:35.966Z,8.20
2022-11-23T07:12:03.120Z,9.27
2022-11-23T07:14:30.228Z,7.67
2022-11-23T07:16:57.303Z,7.10
2022-11-23T07:19:24.386Z,7.05
2022-11-23T07:21:51.451Z,8.75
2022-11-23T07:24:18.583Z,8.75
2022-11-23T07:26:45.618Z,8.63
2022-11-23T07:29:12.759Z,8.15
2022-11-23T07:31:39.949Z,11.10
2022-11-23T07:34:09.096Z,18.45
2022-11-23T07:36:36.594Z,17.02
2022-11-23T07:39:03.868Z,15.50
2022-11-23T07:41:31.034Z,9.88
2022-11-23T07:43:58.094Z,5.78
2022-11-23T07:46:25.360Z,8.23
2022-11-23T07:48:54.309Z,6.35
2022-11-23T07:51:21.382Z,6.45
2022-11-23T07:53:48.435Z,6.32
2022-11-23T07:56:15.518Z,6.90
2022-11-23T07:58:42.584Z,6.53
2022-11-23T08:01:11.043Z,6.70
2022-11-23T08:03:38.127Z,5.65
2022-11-23T08:06:09.794Z,7.25
2022-11-23T08:08:36.863Z,9.07
2022-11-23T08:11:05.396Z,5.63
2022-11-23T08:13:34.575Z,6.30
2022-11-23T08:16:02.053Z,8.48
2022-11-23T08:18:29.074Z,7.35
2022-11-23T08:20:56.196Z,7.53
2022-11-23T08:23:23.357Z,6.97
2022-11-23T08:25:50.427Z,7.30
2022-11-23T08:28:17.947Z,13.98
2022-11-23T08:30:44.987Z,11.27
2022-11-23T08:33:12.890Z,8.97
2022-11-23T08:35:41.132Z,9.30
2022-11-23T08:38:08.995Z,8.63
2022-11-23T08:40:36.718Z,6.45
2022-11-23T08:43:04.239Z,8.35
2022-11-23T08:45:31.337Z,7.15
2022-11-23T08:48:02.242Z,8.90
2022-11-23T08:50:30.262Z,7.25
2022-11-23T08:52:57.781Z,6.60
2022-11-23T08:55:25.342Z,8.55
2022-11-23T08:57:55.737Z,7.18
2022-11-23T09:00:22.952Z,6.10
2022-11-23T09:02:50.111Z,8.00
2022-11-23T09:05:17.222Z,7.57
2022-11-23T09:07:44.264Z,9.10
2022-11-23T09:10:15.145Z,8.03
2022-11-23T09:12:45.330Z,7.30
2022-11-23T09:15:12.374Z,7.55
2022-11-23T09:17:39.680Z,6.88
2022-11-23T09:20:07.364Z,6.22
2022-11-23T09:22:34.598Z,7.10
2022-11-23T09:25:01.640Z,8.50
2022-11-23T09:27:28.770Z,10.75
2022-11-23T09:29:56.917Z,8.07
2022-11-23T09:32:24.046Z,7.57
2022-11-23T09:34:51.105Z,8.60
2022-11-23T09:37:18.309Z,7.65
2022-11-23T09:39:45.332Z,6.17
2022-11-23T09:42:32.301Z,7.30
2022-11-23T09:45:12.708Z,6.85
2022-11-23T09:47:43.058Z,6.68
2022-11-23T09:50:21.633Z,7.85
2022-11-23T09:52:51.021Z,6.75
2022-11-23T09:55:30.655Z,6.17
2022-11-23T09:58:01.339Z,9.00
2022-11-23T10:00:31.173Z,9.43
2022-11-23T10:02:58.271Z,6.28
2022-11-23T10:05:27.005Z,6.90
2022-11-23T10:08:03.412Z,6.03
2022-11-23T10:10:50.369Z,4.30
2022-11-23T10:13:18.501Z,4.43
2022-11-23T10:15:54.173Z,5.85
2022-11-23T10:18:26.141Z,4.38
2022-11-23T10:20:53.288Z,6.28
2022-11-23T10:23:28.078Z,4.35
2022-11-23T10:25:55.194Z,5.65
2022-11-23T10:28:23.165Z,3.83
2022-11-23T10:30:55.997Z,4.87
2022-11-23T10:33:23.020Z,4.57
2022-11-23T10:35:50.169Z,10.82
2022-11-23T10:38:19.415Z,6.32
2022-11-23T10:40:53.463Z,5.60
2022-11-23T10:43:25.637Z,3.95
2022-11-23T10:45:57.237Z,3.67
2022-11-23T10:48:34.725Z,4.68
2022-11-23T10:51:21.918Z,4.47
2022-11-23T10:54:06.208Z,4.22
2022-11-23T10:56:33.972Z,5.30
2022-11-23T10:59:01.219Z,4.47
2022-11-23T11:01:30.235Z,5.10
2022-11-23T11:04:00.513Z,3.80
2022-11-23T11:06:29.407Z,4.25
2022-11-23T11:09:00.473Z,2.95
2022-11-23T11:11:30.197Z,4.18
2022-11-23T11:14:17.174Z,4.07
2022-11-23T11:16:48.863Z,4.03
2022-11-23T11:19:35.990Z,5.05
2022-11-23T11:22:04.862Z,2.88
2022-11-23T11:24:33.069Z,4.15
2022-11-23T11:27:02.070Z,4.40
2022-11-23T11:29:38.356Z,4.05
2022-11-23T11:32:06.355Z,4.60
2022-11-23T11:34:39.473Z,2.92
2022-11-23T11:37:09.815Z,4.03
2022-11-23T11:39:40.145Z,4.57
2022-11-23T11:42:09.609Z,2.75
2022-11-23T11:44:39.598Z,3.17
2022-11-23T11:47:15.876Z,3.67
2022-11-23T11:49:44.881Z,2.30
2022-11-23T11:52:16.088Z,3.97
2022-11-23T11:54:51.815Z,3.47
2022-11-23T11:57:21.976Z,3.00
2022-11-23T11:59:50.434Z,2.70
2022-11-23T12:02:25.947Z,3.03
2022-11-23T12:05:13.007Z,2.97
2022-11-23T12:07:44.818Z,3.00
2022-11-23T12:10:18.036Z,6.20
2022-11-23T12:12:45.196Z,3.23
2022-11-23T12:15:47.236Z,3.35
2022-11-23T12:18:10.597Z,7.75
2022-11-23T12:20:49.024Z,4.03
2022-11-23T12:23:24.857Z,4.20
2022-11-23T12:25:59.241Z,4.57
2022-11-23T12:28:37.209Z,3.78
2022-11-23T12:31:05.521Z,2.83
2022-11-23T12:33:32.504Z,4.07
2022-11-23T12:36:09.224Z,4.22
2022-11-23T12:38:56.231Z,3.45
2022-11-23T12:41:24.686Z,2.85
2022-11-23T12:44:04.630Z,2.90
2022-11-23T12:46:39.320Z,3.88
2022-11-23T12:49:14.013Z,3.60
2022-11-23T12:51:42.167Z,3.28
2022-11-23T12:54:16.649Z,2.03
2022-11-23T12:56:45.542Z,3.15
2022-11-23T12:59:13.931Z,2.65
2022-11-23T13:01:43.471Z,3.70
2022-11-23T13:04:11.992Z,2.80
2022-11-23T13:07:26.787Z,2.87
2022-11-23T13:09:54.736Z,5.03
2022-11-23T13:12:29.144Z,1.97
2022-11-23T13:14:56.211Z,4.25
2022-11-23T13:17:30.704Z,4.82
2022-11-23T13:19:57.813Z,2.87
2022-11-23T13:22:25.000Z,2.65
2022-11-23T13:25:11.981Z,4.80
2022-11-23T13:27:46.453Z,3.60
2022-11-23T13:30:59.281Z,4.07
2022-11-23T13:33:27.013Z,6.03
2022-11-23T13:35:57.056Z,3.92
2022-11-23T13:38:25.376Z,3.00
2022-11-23T13:40:52.476Z,3.50
2022-11-23T13:43:22.865Z,2.55
2022-11-23T13:46:09.955Z,2.77
2022-11-23T13:48:56.356Z,3.33
2022-11-23T13:51:25.193Z,3.20
2022-11-23T13:54:03.003Z,2.35
2022-11-23T13:56:32.211Z,2.78
2022-11-23T13:59:19.180Z,3.63
2022-11-23T14:02:06.222Z,2.10
2022-11-23T14:04:35.807Z,2.63
2022-11-23T14:07:10.440Z,3.05
2022-11-23T14:09:46.941Z,2.80
2022-11-23T14:12:15.002Z,3.60
2022-11-23T14:14:46.552Z,2.58
2022-11-23T14:17:33.503Z,2.78
2022-11-23T14:20:20.486Z,2.40
2022-11-23T14:23:07.444Z,3.47
2022-11-23T14:25:54.469Z,4.28
2022-11-23T14:28:29.819Z,2.42
2022-11-23T14:31:07.554Z,3.55
2022-11-23T14:33:40.004Z,3.03
2022-11-23T14:36:13.574Z,3.53
2022-11-23T14:38:56.239Z,2.38
2022-11-23T14:41:25.252Z,2.38
2022-11-23T14:43:52.740Z,7.95
2022-11-23T14:46:21.144Z,5.60
2022-11-23T14:48:48.932Z,4.57
2022-11-23T14:51:20.680Z,3.85
2022-11-23T14:53:50.039Z,2.47
2022-11-23T14:56:37.087Z,2.65
2022-11-23T14:59:10.011Z,2.73
2022-11-23T15:01:37.815Z,3.50
2022-11-23T15:04:09.564Z,3.70
2022-11-23T15:06:43.969Z,3.90
2022-11-23T15:09:26.005Z,4.13
2022-11-23T15:12:05.661Z,2.75
2022-11-23T15:14:33.377Z,3.53
2022-11-23T15:17:20.767Z,4.53
2022-11-23T15:19:56.020Z,5.25
2022-11-23T15:22:24.588Z,5.32
2022-11-23T15:24:51.959Z,5.83
2022-11-23T15:27:28.277Z,4.03
2022-11-23T15:29:57.791Z,4.00
2022-11-23T15:32:31.258Z,5.22
2022-11-23T15:35:01.473Z,3.97
2022-11-23T15:37:28.918Z,3.88
2022-11-23T15:39:56.606Z,6.95
2022-11-23T15:42:25.330Z,10.13
2022-11-23T15:44:55.646Z,8.30
2022-11-23T15:47:26.140Z,5.43
2022-11-23T15:49:55.719Z,4.40
2022-11-23T15:52:23.254Z,7.40
2022-11-23T15:54:50.438Z,9.00
2022-11-23T15:57:20.362Z,10.85
2022-11-23T15:59:48.931Z,8.20
2022-11-23T16:02:18.681Z,12.02
2022-11-23T16:04:45.927Z,9.27
2022-11-23T16:07:16.816Z,7.78
2022-11-23T16:09:53.043Z,5.53
2022-11-23T16:12:21.827Z,6.27
2022-11-23T16:14:49.035Z,7.28
2022-11-23T16:17:19.026Z,6.93
2022-11-23T16:19:48.625Z,6.97
2022-11-23T16:22:21.375Z,9.70
2022-11-23T16:24:50.230Z,12.15
2022-11-23T16:27:22.374Z,6.20
2022-11-23T16:29:50.943Z,5.13
2022-11-23T16:32:26.898Z,5.70
2022-11-23T16:34:54.643Z,7.05
2022-11-23T16:37:22.098Z,6.90
2022-11-23T16:39:49.169Z,7.07
2022-11-23T16:42:16.495Z,6.23
2022-11-23T16:44:46.597Z,7.75
2022-11-23T16:47:22.597Z,5.30
2022-11-23T16:49:49.857Z,8.15
2022-11-23T16:52:17.262Z,5.43
2022-11-23T16:54:44.369Z,6.65
2022-11-23T16:57:18.177Z,6.75
2022-11-23T16:59:45.458Z,6.65
2022-11-23T17:02:13.528Z,5.75
2022-11-23T17:04:40.673Z,7.32
2022-11-23T17:07:07.882Z,4.45
2022-11-23T17:09:35.330Z,6.55
2022-11-23T17:12:03.362Z,7.63
2022-11-23T17:14:32.384Z,5.00
2022-11-23T17:17:02.650Z,8.27
2022-11-23T17:19:30.588Z,7.20
2022-11-23T17:21:57.965Z,7.13
2022-11-23T17:24:25.074Z,10.87
2022-11-23T17:26:53.024Z,9.85
2022-11-23T17:29:20.741Z,18.30
2022-11-23T17:31:48.526Z,13.00
2022-11-23T17:34:16.146Z,12.18
2022-11-23T17:36:45.058Z,10.93
2022-11-23T17:39:17.774Z,9.02
2022-11-23T17:41:44.841Z,10.63
2022-11-23T17:44:11.973Z,12.30
2022-11-23T17:46:39.223Z,14.13
2022-11-23T17:49:08.096Z,12.82
2022-11-23T17:51:35.320Z,13.80
2022-11-23T17:54:02.414Z,13.38
2022-11-23T17:56:29.911Z,13.18
2022-11-23T17:58:57.485Z,12.15
2022-11-23T18:01:24.636Z,12.70
2022-11-23T18:03:51.943Z,14.15
2022-11-23T18:06:20.578Z,31.83
2022-11-23T18:08:48.265Z,29.07
2022-11-23T18:11:15.699Z,30.80
2022-11-23T18:13:43.565Z,30.73
2022-11-23T18:16:11.128Z,27.75
2022-11-23T18:18:38.386Z,25.02
2022-11-23T18:21:06.178Z,22.65
2022-11-23T18:23:33.674Z,17.08
2022-11-23T18:26:01.650Z,15.50
2022-11-23T18:28:28.834Z,12.67
2022-11-23T18:30:56.003Z,9.27
2022-11-23T18:33:23.752Z,10.32
2022-11-23T18:35:50.788Z,13.63
2022-11-23T18:38:17.866Z,14.45
2022-11-23T18:40:44.925Z,10.38
2022-11-23T18:43:11.997Z,10.02
2022-11-23T18:45:39.096Z,10.23
2022-11-23T18:48:07.772Z,11.13
2022-11-23T18:50:34.884Z,10.77
2022-11-23T18:53:02.031Z,10.43
2022-11-23T18:55:29.252Z,11.60
2022-11-23T18:57:56.706Z,12.48
2022-11-23T19:00:24.068Z,11.95
2022-11-23T19:02:52.030Z,9.85
2022-11-23T19:05:19.500Z,9.38
2022-11-23T19:07:46.956Z,8.87
2022-11-23T19:10:14.113Z,9.30
2022-11-23T19:12:41.291Z,10.52
2022-11-23T19:15:09.649Z,12.55
2022-11-23T19:17:36.786Z,11.88
2022-11-23T19:20:05.774Z,13.95
2022-11-23T19:22:33.933Z,17.33
2022-11-23T19:25:00.976Z,13.93
2022-11-23T19:27:28.205Z,18.13
2022-11-23T19:29:55.296Z,12.57
2022-11-23T19:32:22.493Z,18.55
2022-11-23T19:34:49.640Z,12.70
2022-11-23T19:37:16.761Z,14.70
2022-11-23T19:39:43.882Z,11.57
2022-11-23T19:42:10.962Z,16.35
2022-11-23T19:44:38.073Z,16.50
2022-11-23T19:47:10.147Z,15.20
2022-11-23T19:49:40.940Z,12.70
2022-11-23T19:52:07.996Z,13.63
2022-11-23T19:54:35.144Z,13.18
2022-11-23T19:57:02.252Z,10.18
2022-11-23T19:59:29.364Z,12.52
2022-11-23T20:01:56.512Z,12.55
2022-11-23T20:04:23.634Z,10.45
2022-11-23T20:06:51.567Z,10.35
2022-11-23T20:09:21.080Z,9.70
2022-11-23T20:11:50.964Z,9.68
2022-11-23T20:14:18.724Z,11.10
2022-11-23T20:16:46.140Z,9.95
2022-11-23T20:19:13.212Z,11.57
2022-11-23T20:21:40.369Z,16.50
2022-11-23T20:24:10.822Z,12.80
2022-11-23T20:26:38.108Z,15.90
2022-11-23T20:29:05.895Z,14.50
2022-11-23T20:31:33.517Z,18.23
2022-11-23T20:34:01.911Z,12.82
2022-11-23T20:36:30.308Z,12.77
2022-11-23T20:38:57.462Z,11.57
2022-11-23T20:41:26.955Z,11.48
2022-11-23T20:43:55.325Z,12.85
2022-11-23T20:46:38.583Z,14.35
2022-11-23T20:49:10.156Z,14.02
2022-11-23T20:51:37.239Z,13.95
2022-11-23T20:54:04.391Z,14.85
2022-11-23T20:56:32.247Z,13.98
2022-11-23T20:59:00.096Z,17.15
2022-11-23T21:01:28.059Z,18.70
2022-11-23T21:03:58.431Z,14.43
2022-11-23T21:06:26.190Z,10.93
2022-11-23T21:08:53.247Z,12.38
2022-11-23T21:11:48.225Z,11.15
2022-11-23T21:14:18.150Z,11.00
2022-11-23T21:16:46.475Z,10.50
2022-11-23T21:19:14.339Z,11.50
2022-11-23T21:21:41.489Z,11.82
2022-11-23T21:24:09.146Z,13.73
2022-11-23T21:26:36.541Z,11.80
2022-11-23T21:29:09.311Z,10.70
2022-11-23T21:31:37.530Z,11.87
2022-11-23T21:34:06.076Z,11.82
2022-11-23T21:36:35.286Z,13.55
2022-11-23T21:39:04.898Z,14.02
2022-11-23T21:41:31.995Z,13.97
2022-11-23T21:43:59.247Z,19.37
2022-11-23T21:46:26.661Z,12.93
2022-11-23T21:48:55.070Z,13.98
2022-11-23T21:51:22.707Z,13.90
2022-11-23T21:53:49.910Z,13.30
2022-11-23T21:56:17.985Z,13.93
2022-11-23T21:58:45.382Z,11.88
2022-11-23T22:01:19.903Z,18.07
2022-11-23T22:03:48.688Z,15.52
2022-11-23T22:06:20.496Z,12.63
2022-11-23T22:08:49.171Z,11.88
2022-11-23T22:11:17.665Z,10.20
2022-11-23T22:13:44.921Z,8.65
2022-11-23T22:16:17.476Z,12.48
2022-11-23T22:18:44.691Z,10.23
2022-11-23T22:21:11.867Z,12.47
2022-11-23T22:23:39.047Z,7.67
2022-11-23T22:26:06.861Z,8.15
2022-11-23T22:28:34.444Z,8.50
2022-11-23T22:31:02.964Z,12.30
2022-11-23T22:33:30.507Z,11.18
2022-11-23T22:36:01.524Z,10.68
2022-11-23T22:38:29.822Z,10.40
2022-11-23T22:40:56.882Z,12.68
2022-11-23T22:43:24.022Z,9.80
2022-11-23T22:45:51.230Z,7.25
2022-11-23T22:48:18.384Z,6.20
2022-11-23T22:50:55.415Z,5.00
2022-11-23T22:53:22.562Z,5.00
2022-11-23T22:55:49.642Z,6.15
2022-11-23T22:58:16.712Z,11.37
2022-11-23T23:00:43.775Z,8.00
2022-11-23T23:03:11.134Z,7.20
2022-11-23T23:05:38.365Z,8.10
2022-11-23T23:08:05.542Z,7.97
2022-11-23T23:10:32.680Z,6.37
2022-11-23T23:12:59.754Z,5.17
2022-11-23T23:15:27.498Z,8.10
2022-11-23T23:17:54.808Z,8.32
2022-11-23T23:20:21.895Z,8.10
2022-11-23T23:22:49.068Z,8.10
2022-11-23T23:25:16.180Z,5.97
2022-11-23T23:27:43.396Z,5.20
2022-11-23T23:30:10.739Z,4.47
2022-11-23T23:32:37.818Z,4.07
2022-11-23T23:35:05.065Z,5.20
2022-11-23T23:37:32.120Z,5.53
2022-11-23T23:39:59.219Z,7.40
2022-11-23T23:42:26.310Z,0.60
2022-11-23T23:44:53.365Z,0.50
2022-11-23T23:47:20.596Z,0.80
2022-11-23T23:49:47.615Z,0.10
2022-11-23T23:52:14.582Z,0.10
2022-11-23T23:54:41.610Z,0.20
2022-11-23T23:57:08.818Z,0.73
2022-11-23T23:59:36.162Z,0.10
